Jackman, Maine
Current Conditions -  °F | °C
As of 6:00 AM on Wednesday 26 Nov 2014 (Local Time) from CYSC Reporting Station
Overcast Overcast  
Wind Chill: -2°   Ceiling: 3200
Heat Index:   Visibility: 9mi
Dew Point: -4°   Wind: 7mph
Humidity: 70%   Direction: 250°WSW
Pressure: 30.19"   Gusts: NA
Location:  45.62°N, 70.25°W
Report Text: CYSC 261100Z AUTO 25006KT 9SM OVC032 01/M04 A3019 RMK SLP231
Loading
Personal Weather Stations






























Interactive Weather Map New forecast layout! Learn more

10-Day Weather Forecast

Advertisements
Track Severe Weather on mobile